Main page
METAR-TAF:

METAR-TAF

Airports :

RAF Cranwell

Cranwell, England

latitude: 53-02N, longitude: 000-30W, elevation: 67 m

Current weather observation

The report was made 59 minutes ago, at 16:50 UTC
Wind 11 kt from the South
Temperature 12°C
Humidity 94%
Pressure 1019 hPa
Visibility: 9000 m
Few clouds at a height of 1000 ft
mist

METAR: EGYD 151650Z 18011KT 9000 BR FEW010 12/11 Q1019 BLU

Time: 17:49 (17:49 UTC)

Forecast

The report was made 4 hours and 1 minutes ago, at 13:48 UTC
Forecast valid from 15 at 15 UTC to 15 at 19 UTC
Wind 8 kt from the South/Southeast
Visibility 10 km or more
Few clouds at a height of 1800 ft
Temporary
from 15 at 15 UTC to 15 at 16 UTC
Scattered clouds at a height of 1800 ft
Becoming
from 15 at 16 UTC to 15 at 18 UTC
Broken clouds at a height of 1200 ft

TAF: EGYD 151348Z 1515/1519 16008KT 9999 FEW018 TEMPO 1515/1516 SCT018 BECMG 1516/1518 BKN012

Weather observations and forecasts of more than 4000 airports (METAR and TAF reports).

The available stations are represented by yellow and red dots on the map.

Hover mouse over dot to see the name of the station.

Then click to see weather observations and forecasts.

To change the map : click on the green buttons with a black cross to zoom in, on the green button with a dash to zoom out, or on the green arrows for adjacent maps.


METAR-TAF: